NATIONALE - Nord-Est FAUCOGNEY (70) - K

Date : 17/04/2011
Distance : 4,400 km

Place Nom Licence Catégorie Club Temps min/km CN à J-60 Points Différence Nouveau CN
1 CLOUARD Lucile 8551 D16 7807IF 0:39:24 8'57 4982 5218 +236 5238
2 POIROT Delphine 15979 D16 8809LO 0:40:45 9'15 4981 5045 +64 5808
3 HABERKORN Chloé 10396 D16 2105BO 0:42:22 9'37 3886 4852 +966 4865
4 DEVRIEUX Naïs 7672 D16 4203RA 0:42:36 9'40 4382 4826 +444 4628
5 BOULESTREAU Zélie 11309 D16 2904BR 0:44:27 10'06 5336 4625 -711 5819
6 HUMMEL-AZAIS Margaux 18432 D16 7403RA 0:46:32 10'34 4546 4418 -128 4792
7 BODY Mathilde 10184 D16 7305RA 0:47:45 10'51 3923 4305 +382 4765
8 LEPERQUE Ophelie 20200 D16 6208NO 0:54:04 12'17 3992 3802 -190 4051
9 ROULLEAUX Julie 11559 D16 9105IF 0:56:35 12'51 4216 3633 -583 4381
10 AMET Marion 14575 D16 8809LO 0:56:53 12'55 4039 3614 -425 4161
11 MAISONNEUVE Valentine 16357 D16 4203RA 0:56:56 12'56 3797 3611 -186 4293
12 BRAHIM BOUNAB Riyan 21991 H16 6803AL 0:57:47 13'07 3229 3558 +329 3603
13 RIVOLLIER Isaline 22451 D16 4201RA 0:58:19 13'15 2550 3525 +975 3154
14 LUTHRINGER Coline 10091 D16 8809LO 0:58:23 13'16 3104 3521 +417 3560
15 PETER-JAN Lucile 19276 D16 3705CE 0:58:58 13'24 3678 3486 -192 4024
16 BISSIERE Camille 19486 D16 4709AQ 0:59:17 13'28 3327 3468 +141 3645
17 CAMAS Mandye 19238 D16 5907NO 1:00:24 13'43 3842 3404 -438 4464
18 GIRARD Lucille 19689 D16 3705CE 1:00:31 13'45 3674 3397 -277 4109
19 BUTIN Pierrick 23793 H16 6208NO 1:00:38 13'46 0 3390 2618
20 CHARDOT Marion 22315 D16 7807IF 1:01:00 13'51 3001 3370 +369 3526
21 CLAVEL Matéo 22804 H16 5907NO 1:03:23 14'24 2355 3243 +888 3280
22 MORLON Emilie 7787 D18 5702LO 1:06:36 15'08 3706 3087 -619 3285
23 TRESSOL Ludivine 20533 D16 4704AQ 1:07:17 15'17 2879 3055 +176 2948
24 GUILMAIN Melanie 20572 D16 6208NO 1:07:23 15'18 3786 3051 -735 3956
25 VERDIN Alix 15276 D16 7109BO 1:07:38 15'22 3457 3040 -417 3691
26 BORNARD Julie 9402 D16 7305RA 1:08:00 15'27 3001 3023 +22 3227
27 FORCA Valentin 23461 H16 5703LO 1:09:50 15'52 0 2944 3396
28 BACHER Amelie 10072 D16 2517FC 1:09:54 15'53 3428 2941 -487 3428
29 MORLON Louise 7788 D16 5702LO 1:11:05 16'09 3909 2892 -1017 3741
30 KORCHAK Nathalie 13638 D16 6806AL 1:12:14 16'25 3837 2846 -991 3900
31 GOURLAIN Mathilde 18299 D16 6205NO 1:14:47 16'59 3636 2749 -887 3731
32 BESTEL Sandra 10758 D16 9105IF 1:15:05 17'03 2913 2738 -175 3032
33 GUINOT Marion 15018 D16 2108BO 1:15:10 17'05 3334 2735 -599 3558
34 NOY-GSELL Arielle 11305 D16 7807IF 1:20:55 18'23 2327 2541 +214 2566
35 DUQUENNE Audrey 23885 D16 5907NO 1:22:55 18'50 1914 2479 +565 2991
36 GONNEAUD Perrine 11385 D16 7109BO 1:26:44 19'42 2919 2370 -549 2978
37 LEBIGRE Thibaut 22405 H16 7716IF 1:28:50 20'11 1546 2314 +768 2053
38 TEGNY Laurine 23659 D16 6205NO 1:46:02 24'05 0 1939 1924
39 FAVIER Maxence 22251 H16 6208NO 2:12:10 30'02 2195 1555 -640 2261
VANOVERBERGHE Camille 21323 D16 6208NO pm None 4163 0 4335
DENAIX Lou 7711 D16 7403RA pm None 4432 0 4798